Time;durP1;ratioP1;P1;durP2;ratioP2;P2;SDS_P1;SDS_P2;PMS_P1;PMS_P2;Temp;Humidity;BMP_temperature;BMP_pressure;BME280_temperature;BME280_humidity;BME280_pressure;Samples;Min_cycle;Max_cycle;Signal;HPM_P1;HPM_P2
2022/01/02 00:01:35;;;;;;;5.15;4.85;;;;;;;9.31;100.00;101456.66;4392746;32;20068;-67
2022/01/02 00:04:01;;;;;;;4.60;4.30;;;;;;;9.29;100.00;101470.72;4385348;32;20174;-67
2022/01/02 00:06:26;;;;;;;5.65;5.45;;;;;;;9.31;100.00;101442.72;4368876;32;20227;-67
2022/01/02 00:09:03;;;;;;;4.57;4.37;;;;;;;9.27;100.00;101431.47;4381424;32;20080;-67
2022/01/02 00:11:29;;;;;;;4.65;4.45;;;;;;;9.36;100.00;101441.62;4381241;32;20072;-67
2022/01/02 00:13:56;;;;;;;4.05;3.85;;;;;;;9.45;100.00;101431.75;4381249;32;20405;-67
2022/01/02 00:16:21;;;;;;;5.68;5.45;;;;;;;9.47;100.00;101449.12;4380122;32;20065;-67
2022/01/02 00:18:52;;;;;;;4.20;4.00;;;;;;;9.42;100.00;101419.63;4391039;32;20081;-67
2022/01/02 00:21:17;;;;;;;5.57;5.35;;;;;;;9.41;100.00;101438.00;4381828;32;20081;-67
2022/01/02 00:23:59;;;;;;;4.43;4.22;;;;;;;9.33;100.00;101433.87;4378717;32;20084;-67
2022/01/02 00:26:33;;;;;;;5.78;5.37;;;;;;;9.32;100.00;101447.03;4388519;32;20072;-68
2022/01/02 00:28:58;;;;;;;4.20;4.00;;;;;;;9.35;100.00;101452.16;4381456;32;20092;-67
2022/01/02 00:31:24;;;;;;;5.45;5.25;;;;;;;9.33;100.00;101454.00;4379407;32;20321;-67
2022/01/02 00:33:49;;;;;;;4.10;3.90;;;;;;;9.00;100.00;101425.44;4389867;32;20154;-67
2022/01/02 00:36:15;;;;;;;5.50;5.30;;;;;;;9.17;100.00;101435.31;4381757;32;20065;-68
2022/01/02 00:38:40;;;;;;;4.53;4.32;;;;;;;9.25;100.00;101451.63;4372163;32;20555;-67
2022/01/02 00:41:06;;;;;;;4.20;4.00;;;;;;;9.25;100.00;101445.53;4382422;32;20088;-67
2022/01/02 00:43:57;;;;;;;4.12;3.92;;;;;;;9.23;100.00;101444.75;4382997;32;20092;-68
2022/01/02 00:46:22;;;;;;;5.25;5.05;;;;;;;9.15;100.00;101445.84;4387840;32;20072;-70
2022/01/02 00:48:47;;;;;;;4.30;4.10;;;;;;;9.12;100.00;101438.13;4383728;32;20123;-67
2022/01/02 00:51:31;;;;;;;5.25;5.05;;;;;;;9.21;100.00;101449.19;4377061;32;20092;-68
2022/01/02 00:53:58;;;;;;;4.20;4.00;;;;;;;9.22;100.00;101453.50;4392636;32;20083;-67
2022/01/02 00:56:24;;;;;;;6.05;5.75;;;;;;;9.23;100.00;101452.59;4376962;32;20129;-67
2022/01/02 00:58:53;;;;;;;4.00;3.80;;;;;;;9.10;100.00;101433.81;4383558;32;20074;-67
2022/01/02 01:01:37;;;;;;;5.70;5.40;;;;;;;9.23;100.00;101450.81;4379626;32;20199;-67
2022/01/02 01:04:02;;;;;;;4.15;3.95;;;;;;;7.96;100.00;101239.63;4380231;32;20593;-67
2022/01/02 01:06:30;;;;;;;5.57;5.32;;;;;;;9.19;100.00;101460.53;4383951;32;20542;-67
2022/01/02 01:08:56;;;;;;;3.92;3.80;;;;;;;9.24;100.00;101451.66;4381126;32;20069;-67
2022/01/02 01:11:26;;;;;;;5.62;5.43;;;;;;;9.26;100.00;101465.56;4386035;32;20080;-67
2022/01/02 01:13:52;;;;;;;4.30;4.10;;;;;;;9.29;100.00;101468.09;4378347;32;20172;-67
2022/01/02 01:16:18;;;;;;;6.22;5.93;;;;;;;9.28;100.00;101458.50;4383182;32;20073;-67
2022/01/02 01:18:44;;;;;;;4.50;4.30;;;;;;;9.39;100.00;101452.00;4387865;32;20073;-66
2022/01/02 01:21:09;;;;;;;4.12;3.92;;;;;;;9.39;100.00;101461.63;4380868;32;20180;-67
2022/01/02 01:23:35;;;;;;;4.00;3.83;;;;;;;9.35;100.00;101460.03;4380424;32;20064;-67
2022/01/02 01:26:06;;;;;;;4.20;4.00;;;;;;;9.37;100.00;101458.22;4381003;32;20093;-67
2022/01/02 01:28:31;;;;;;;4.35;4.15;;;;;;;9.32;100.00;101453.13;4379318;32;20917;-67
2022/01/02 01:30:56;;;;;;;4.10;3.90;;;;;;;9.35;100.00;101450.41;4379115;32;20077;-67
2022/01/02 01:33:22;;;;;;;5.20;5.00;;;;;;;9.37;100.00;101432.00;4378865;32;20089;-66
2022/01/02 01:35:47;;;;;;;4.20;4.00;;;;;;;9.36;100.00;101457.34;4383496;32;20614;-67
2022/01/02 01:38:13;;;;;;;4.82;4.62;;;;;;;9.42;100.00;101451.06;4379508;32;20074;-67
2022/01/02 01:41:02;;;;;;;4.03;3.83;;;;;;;9.44;100.00;101440.50;4385708;32;20233;-66
2022/01/02 01:43:38;;;;;;;5.37;5.18;;;;;;;9.41;100.00;101451.94;4396975;32;20175;-67
2022/01/02 01:46:04;;;;;;;4.10;3.90;;;;;;;9.42;100.00;101445.81;4393208;32;20077;-66
2022/01/02 01:48:30;;;;;;;4.50;4.30;;;;;;;9.48;100.00;101435.12;4382910;32;20539;-67
2022/01/02 01:50:55;;;;;;;4.70;4.47;;;;;;;9.38;100.00;101425.84;4389600;32;20147;-68
2022/01/02 01:53:20;;;;;;;5.55;5.35;;;;;;;9.42;100.00;101424.84;4383134;32;20084;-67
2022/01/02 01:55:46;;;;;;;4.40;4.20;;;;;;;9.47;100.00;101409.81;4387707;32;20499;-67
2022/01/02 01:58:11;;;;;;;4.75;4.55;;;;;;;9.43;100.00;101410.84;4382647;32;20079;-67
2022/01/02 02:00:37;;;;;;;4.20;4.00;;;;;;;8.78;100.00;101326.69;4382144;32;20083;-67
2022/01/02 02:03:02;;;;;;;4.30;4.10;;;;;;;9.41;100.00;101431.00;4386483;32;20579;-67
2022/01/02 02:05:28;;;;;;;5.05;4.85;;;;;;;9.39;100.00;101445.91;4401550;32;20554;-67
2022/01/02 02:07:53;;;;;;;4.30;4.10;;;;;;;9.39;100.00;101431.03;4382942;32;20787;-67
2022/01/02 02:10:40;;;;;;;5.65;5.45;;;;;;;9.41;100.00;101407.41;4377047;32;20089;-67
2022/01/02 02:13:06;;;;;;;4.03;3.83;;;;;;;9.41;100.00;101407.41;4379016;32;20176;-67
2022/01/02 02:15:31;;;;;;;4.18;3.97;;;;;;;9.38;100.00;101402.28;4380007;32;20357;-67
2022/01/02 02:17:57;;;;;;;4.25;4.05;;;;;;;9.37;100.00;101421.53;4386054;32;20085;-67
2022/01/02 02:20:27;;;;;;;4.30;4.10;;;;;;;9.34;100.00;101432.09;4385849;32;20070;-66
2022/01/02 02:22:55;;;;;;;4.50;4.30;;;;;;;9.31;100.00;101424.38;4381422;32;20080;-67
2022/01/02 02:25:22;;;;;;;6.45;6.15;;;;;;;9.00;100.00;101362.59;4380474;32;20208;-67
2022/01/02 02:27:58;;;;;;;4.50;4.30;;;;;;;9.33;100.00;101414.69;4379555;32;20498;-67
2022/01/02 02:30:25;;;;;;;5.35;5.15;;;;;;;9.35;100.00;101416.34;4371249;32;20100;-67
2022/01/02 02:32:55;;;;;;;4.30;4.10;;;;;;;9.28;100.00;101404.38;4377463;32;20081;-67
2022/01/02 02:35:20;;;;;;;6.15;5.85;;;;;;;9.37;100.00;101393.56;4381249;32;20318;-67
2022/01/02 02:37:45;;;;;;;4.70;4.50;;;;;;;9.40;100.00;101395.22;4382647;32;20800;-67
2022/01/02 02:40:12;;;;;;;4.95;4.65;;;;;;;9.38;100.00;101389.16;4382364;32;20087;-67
2022/01/02 02:42:46;;;;;;;4.25;4.05;;;;;;;9.08;100.00;101354.47;4384255;32;20645;-67
2022/01/02 02:50:46;;;;;;;4.43;4.22;;;;;;;9.27;100.00;101328.47;4387705;32;20084;-66
2022/01/02 02:53:15;;;;;;;4.18;4.03;;;;;;;9.31;100.00;101346.63;4390617;32;20614;-67
2022/01/02 02:55:45;;;;;;;4.25;4.05;;;;;;;9.34;100.00;101359.63;4388688;32;20172;-66
2022/01/02 03:00:54;;;;;;;4.00;3.80;;;;;;;9.27;100.00;101329.31;4388108;32;20615;-66
2022/01/02 03:03:20;;;;;;;5.55;5.35;;;;;;;9.19;100.00;101313.03;4378480;32;20073;-67
2022/01/02 03:05:46;;;;;;;4.20;4.00;;;;;;;9.29;100.00;101350.22;4383647;32;20070;-67
2022/01/02 03:08:11;;;;;;;4.10;3.90;;;;;;;9.21;100.00;101342.66;4382957;32;20077;-67
2022/01/02 03:10:36;;;;;;;4.12;3.92;;;;;;;9.15;100.00;101335.00;4379257;32;20483;-67
2022/01/02 03:13:02;;;;;;;4.15;3.95;;;;;;;9.32;100.00;101357.97;4381257;32;20103;-67
2022/01/02 03:15:27;;;;;;;5.57;5.37;;;;;;;9.34;100.00;101364.00;4381095;32;20065;-67
2022/01/02 03:17:52;;;;;;;4.30;4.10;;;;;;;9.33;100.00;101352.69;4381636;32;20089;-67
2022/01/02 03:20:18;;;;;;;6.22;5.93;;;;;;;9.34;100.00;101353.53;4379990;32;20100;-66
2022/01/02 03:22:43;;;;;;;3.97;3.83;;;;;;;9.33;100.00;101355.28;4392174;32;20079;-67
2022/01/02 03:25:14;;;;;;;4.30;4.10;;;;;;;9.35;100.00;101361.34;4392657;32;20328;-67
2022/01/02 03:27:40;;;;;;;4.37;4.18;;;;;;;9.27;100.00;101350.28;4379963;32;20067;-67
2022/01/02 03:30:06;;;;;;;4.22;4.03;;;;;;;9.34;100.00;101364.88;4379605;32;20590;-67
2022/01/02 03:32:31;;;;;;;4.82;4.62;;;;;;;9.37;100.00;101356.03;4372212;32;20184;-67
2022/01/02 03:34:56;;;;;;;4.10;3.90;;;;;;;9.35;100.00;101335.13;4382117;32;20073;-66
2022/01/02 03:37:22;;;;;;;5.80;5.55;;;;;;;8.82;100.00;101243.72;4379371;32;20120;-67
2022/01/02 03:39:47;;;;;;;4.20;4.00;;;;;;;9.45;100.00;101334.81;4386876;32;20053;-67
2022/01/02 03:42:13;;;;;;;5.25;5.05;;;;;;;9.06;100.00;101281.22;4387202;32;20088;-67
2022/01/02 03:44:38;;;;;;;4.30;4.10;;;;;;;9.40;100.00;101329.72;4370535;32;20617;-67
2022/01/02 03:47:04;;;;;;;4.12;3.92;;;;;;;9.37;100.00;101329.84;4387434;32;20645;-67
2022/01/02 03:49:29;;;;;;;4.62;4.43;;;;;;;9.42;100.00;101319.19;4382677;32;20456;-66
2022/01/02 03:51:56;;;;;;;4.55;4.30;;;;;;;9.33;100.00;101281.94;4363916;32;20073;-67
2022/01/02 03:54:21;;;;;;;5.78;5.55;;;;;;;9.42;100.00;101299.09;4380132;32;20081;-67
2022/01/02 03:56:50;;;;;;;4.72;4.53;;;;;;;9.27;100.00;101265.62;4383402;32;20119;-67
2022/01/02 03:59:15;;;;;;;5.82;5.55;;;;;;;9.42;100.00;101288.63;4377704;32;20195;-67
2022/01/02 04:01:40;;;;;;;4.30;4.10;;;;;;;9.41;100.00;101289.53;4384867;32;20068;-67
2022/01/02 04:04:06;;;;;;;4.05;3.85;;;;;;;9.40;100.00;101295.66;4381973;32;20493;-67
2022/01/02 04:06:31;;;;;;;4.40;4.20;;;;;;;9.39;100.00;101294.81;4385917;32;20433;-67
2022/01/02 04:08:56;;;;;;;4.68;4.47;;;;;;;8.99;100.00;101222.12;4384436;32;20096;-67
2022/01/02 04:11:22;;;;;;;5.78;5.53;;;;;;;9.38;100.00;101298.37;4382422;32;20578;-66
2022/01/02 04:13:47;;;;;;;5.15;4.75;;;;;;;9.39;100.00;101294.81;4383193;32;20459;-67
2022/01/02 04:16:12;;;;;;;4.47;4.28;;;;;;;9.39;100.00;101283.50;4378670;32;20058;-67
2022/01/02 04:18:38;;;;;;;4.40;4.20;;;;;;;9.35;100.00;101258.31;4385518;32;20069;-66
2022/01/02 04:21:03;;;;;;;4.03;3.83;;;;;;;9.39;100.00;101273.00;4388761;32;20079;-67
2022/01/02 04:23:28;;;;;;;4.50;4.30;;;;;;;9.40;100.00;101285.19;4378988;32;20659;-66
2022/01/02 04:25:54;;;;;;;4.30;4.10;;;;;;;9.39;100.00;101286.97;4389028;32;20074;-67
2022/01/02 04:28:19;;;;;;;5.90;5.65;;;;;;;9.41;100.00;101289.53;4379604;32;20068;-66
2022/01/02 04:30:44;;;;;;;4.10;3.90;;;;;;;9.43;100.00;101289.47;4379501;32;20072;-67
2022/01/02 04:33:10;;;;;;;4.37;4.18;;;;;;;9.43;100.00;101294.72;4380337;32;20092;-67
2022/01/02 04:35:35;;;;;;;4.10;3.90;;;;;;;9.43;100.00;101299.94;4380354;32;20065;-66
2022/01/02 04:38:00;;;;;;;4.20;4.00;;;;;;;9.42;100.00;101291.25;4389254;32;20511;-67
2022/01/02 04:40:26;;;;;;;5.43;5.20;;;;;;;9.42;100.00;101291.25;4381514;32;20073;-67
2022/01/02 04:42:51;;;;;;;4.60;4.40;;;;;;;9.13;100.00;101234.72;4380959;32;20172;-67
2022/01/02 04:45:17;;;;;;;4.87;4.68;;;;;;;9.45;100.00;101280.63;4392388;32;20061;-66
2022/01/02 04:47:42;;;;;;;4.15;3.95;;;;;;;9.45;100.00;101278.00;4386929;32;20080;-67
2022/01/02 04:50:08;;;;;;;4.20;4.00;;;;;;;9.44;100.00;101265.84;4382225;32;20084;-67
2022/01/02 04:52:33;;;;;;;6.37;4.20;;;;;;;9.44;100.00;101268.47;4387765;32;20516;-66
2022/01/02 04:54:58;;;;;;;4.30;4.10;;;;;;;9.39;100.00;101271.25;4369131;32;20072;-67
2022/01/02 04:57:24;;;;;;;5.60;5.40;;;;;;;9.42;100.00;101267.66;4377679;32;20066;-67
2022/01/02 04:59:49;;;;;;;4.20;4.00;;;;;;;9.38;100.00;101261.69;4377678;32;20131;-67
2022/01/02 05:02:14;;;;;;;6.12;5.82;;;;;;;9.35;100.00;101248.69;4382401;32;20520;-67
2022/01/02 05:04:40;;;;;;;4.22;4.03;;;;;;;9.34;100.00;101243.50;4391191;32;20100;-66
2022/01/02 05:07:06;;;;;;;4.05;3.85;;;;;;;9.29;100.00;101235.84;4379597;32;20072;-67
2022/01/02 05:09:31;;;;;;;4.07;3.87;;;;;;;9.28;100.00;101223.66;4381623;32;20079;-66
2022/01/02 05:11:56;;;;;;;4.70;4.50;;;;;;;9.28;100.00;101215.81;4373818;32;20091;-67
2022/01/02 05:14:22;;;;;;;5.87;5.62;;;;;;;9.28;100.00;101223.66;4379452;32;20188;-67
2022/01/02 05:16:47;;;;;;;4.10;3.90;;;;;;;9.29;100.00;101220.13;4390494;32;20065;-67
2022/01/02 05:19:12;;;;;;;5.07;4.87;;;;;;;9.27;100.00;101218.47;4379883;32;20084;-67
2022/01/02 05:21:38;;;;;;;4.28;4.07;;;;;;;9.27;100.00;101231.56;4385435;32;20085;-67
2022/01/02 05:24:03;;;;;;;3.95;3.80;;;;;;;9.33;100.00;101208.59;4378147;32;20074;-67
2022/01/02 05:26:29;;;;;;;4.80;4.60;;;;;;;9.29;100.00;101196.53;4382987;32;20157;-67
2022/01/02 05:28:55;;;;;;;4.00;3.80;;;;;;;9.29;100.00;101196.53;4386750;32;20526;-67
2022/01/02 05:31:20;;;;;;;5.43;5.22;;;;;;;9.26;100.00;101193.19;4373361;32;20073;-67
2022/01/02 05:33:45;;;;;;;4.00;3.80;;;;;;;9.18;100.00;101202.22;4375581;32;20665;-67
2022/01/02 05:36:11;;;;;;;4.30;4.10;;;;;;;9.29;100.00;101188.69;4367801;32;20085;-67
2022/01/02 05:38:36;;;;;;;4.45;4.25;;;;;;;9.29;100.00;101193.94;4375636;32;20091;-67
2022/01/02 05:41:02;;;;;;;4.20;4.00;;;;;;;9.27;100.00;101192.28;4392901;32;20359;-67
2022/01/02 05:43:29;;;;;;;5.57;5.37;;;;;;;9.25;100.00;101181.88;4381659;32;20452;-67
2022/01/02 05:45:55;;;;;;;4.28;4.07;;;;;;;9.27;100.00;101182.66;4384376;32;20084;-67
2022/01/02 05:48:20;;;;;;;5.93;5.62;;;;;;;9.27;100.00;101174.81;4378156;32;20138;-67
2022/01/02 05:50:46;;;;;;;4.28;4.07;;;;;;;9.13;100.00;101143.06;4384952;32;20590;-65
2022/01/02 05:53:11;;;;;;;4.40;4.20;;;;;;;9.33;100.00;101156.22;4371612;32;20656;-67
2022/01/02 05:55:37;;;;;;;4.30;4.10;;;;;;;9.38;100.00;101161.28;4378172;32;20135;-66
2022/01/02 05:58:03;;;;;;;4.00;3.80;;;;;;;9.21;100.00;101132.28;4382183;32;20204;-67
2022/01/02 06:00:28;;;;;;;5.43;5.22;;;;;;;9.25;100.00;101126.03;4379167;32;20869;-67
2022/01/02 06:02:53;;;;;;;3.90;3.80;;;;;;;9.47;100.00;101145.19;4371253;32;20077;-67
2022/01/02 06:05:19;;;;;;;5.37;5.18;;;;;;;9.42;100.00;101141.94;4379805;32;20958;-67
2022/01/02 06:07:44;;;;;;;4.40;4.20;;;;;;;9.43;100.00;101137.53;4371666;32;20065;-67
2022/01/02 06:10:10;;;;;;;4.20;4.00;;;;;;;9.39;100.00;101135.03;4383424;32;20096;-67
2022/01/02 06:12:35;;;;;;;4.30;4.10;;;;;;;9.38;100.00;101137.69;4381213;32;20346;-67
2022/01/02 06:15:00;;;;;;;4.15;3.95;;;;;;;9.36;100.00;101152.63;4381216;32;20073;-67
2022/01/02 06:17:26;;;;;;;5.90;5.60;;;;;;;9.35;100.00;101171.88;4384516;32;20139;-67
2022/01/02 06:19:51;;;;;;;4.85;4.55;;;;;;;9.34;100.00;101151.81;4381852;32;20088;-67
2022/01/02 06:22:17;;;;;;;5.97;5.68;;;;;;;8.93;100.00;101081.84;4383392;32;20069;-65
2022/01/02 06:24:42;;;;;;;4.20;4.00;;;;;;;9.31;100.00;101131.00;4381564;32;20101;-66
2022/01/02 06:27:08;;;;;;;4.10;3.90;;;;;;;9.31;100.00;101133.62;4384133;32;20213;-66
2022/01/02 06:29:33;;;;;;;4.15;3.95;;;;;;;9.30;100.00;101129.28;4381333;32;20083;-67
2022/01/02 06:31:59;;;;;;;4.62;4.32;;;;;;;9.23;100.00;101120.00;4378058;32;20546;-67
2022/01/02 06:34:24;;;;;;;6.18;5.87;;;;;;;7.45;100.00;100811.25;4376449;32;20054;-68
2022/01/02 06:36:50;;;;;;;4.15;3.95;;;;;;;9.27;100.00;101126.81;4382480;32;20084;-66
2022/01/02 06:39:15;;;;;;;5.45;5.25;;;;;;;8.55;100.00;101000.47;4378191;32;20080;-66
2022/01/02 06:41:40;;;;;;;4.00;3.83;;;;;;;9.25;100.00;101105.91;4382348;32;20711;-67
2022/01/02 06:44:06;;;;;;;4.10;3.90;;;;;;;9.25;100.00;101091.97;4365465;32;20069;-67
2022/01/02 06:46:31;;;;;;;4.30;4.10;;;;;;;9.25;100.00;101086.75;4379172;32;20076;-67
2022/01/02 06:48:56;;;;;;;4.07;3.87;;;;;;;9.26;100.00;101083.19;4371634;32;20073;-66
2022/01/02 06:51:22;;;;;;;6.20;5.80;;;;;;;9.27;100.00;101084.91;4381643;32;20080;-67
2022/01/02 06:53:47;;;;;;;4.22;4.03;;;;;;;9.25;100.00;101060.56;4381519;32;20081;-67
2022/01/02 06:56:12;;;;;;;4.57;4.37;;;;;;;8.94;100.00;101022.50;4379000;32;20082;-68
2022/01/02 06:58:39;;;;;;;4.22;4.03;;;;;;;9.28;100.00;101076.12;4386166;32;20096;-67
2022/01/02 07:01:05;;;;;;;4.20;4.00;;;;;;;9.23;100.00;101054.53;4387438;32;20180;-67
2022/01/02 07:03:31;;;;;;;4.40;4.20;;;;;;;9.30;100.00;101063.81;4377329;32;20152;-67
2022/01/02 07:05:56;;;;;;;4.20;4.00;;;;;;;9.25;100.00;101053.53;4403783;32;20073;-67
2022/01/02 07:08:21;;;;;;;4.72;4.53;;;;;;;9.30;100.00;101058.56;4383617;32;20274;-68
2022/01/02 07:10:47;;;;;;;4.60;4.25;;;;;;;9.32;100.00;101062.00;4384945;32;20070;-67
2022/01/02 07:13:15;;;;;;;4.50;4.30;;;;;;;9.26;100.00;101057.00;4377301;32;20336;-72
2022/01/02 07:15:40;;;;;;;4.10;3.90;;;;;;;9.33;100.00;101048.84;4383312;32;20106;-67
2022/01/02 07:18:06;;;;;;;4.30;4.10;;;;;;;9.37;100.00;101054.81;4382288;32;20566;-67
2022/01/02 07:20:31;;;;;;;4.00;3.80;;;;;;;9.27;100.00;101003.72;4379857;32;20172;-67
2022/01/02 07:22:56;;;;;;;4.10;3.90;;;;;;;9.39;100.00;101040.72;4379286;32;20546;-67
2022/01/02 07:25:22;;;;;;;4.53;4.22;;;;;;;9.40;100.00;101033.72;4394632;32;20084;-68
2022/01/02 07:27:47;;;;;;;4.57;4.37;;;;;;;9.40;100.00;101046.81;4366690;32;20062;-68
2022/01/02 07:30:13;;;;;;;4.32;4.15;;;;;;;9.41;100.00;101022.31;4389782;32;20077;-67
2022/01/02 07:32:39;;;;;;;4.60;4.40;;;;;;;9.42;100.00;101007.44;4383839;32;20080;-67
2022/01/02 07:35:06;;;;;;;4.30;4.10;;;;;;;9.41;100.00;101004.00;4385462;32;20135;-68
2022/01/02 07:37:33;;;;;;;4.40;4.20;;;;;;;9.44;100.00;100990.78;4384210;32;20597;-68
2022/01/02 07:39:58;;;;;;;4.20;4.00;;;;;;;9.42;100.00;100987.38;4381672;32;20578;-68
2022/01/02 07:42:23;;;;;;;5.78;5.55;;;;;;;9.39;100.00;100985.72;4380260;32;20092;-67
2022/01/02 07:44:49;;;;;;;4.20;4.00;;;;;;;9.40;100.00;100968.22;4381237;32;20582;-69
2022/01/02 07:47:14;;;;;;;4.68;4.47;;;;;;;9.38;100.00;100952.59;4369452;32;20170;-70
2022/01/02 07:49:39;;;;;;;4.15;3.90;;;;;;;9.35;100.00;100937.00;4380570;32;20072;-69
2022/01/02 07:52:05;;;;;;;4.20;4.00;;;;;;;9.41;100.00;100940.28;4382702;32;20673;-70
2022/01/02 07:54:30;;;;;;;4.37;4.18;;;;;;;9.43;100.00;100920.94;4382498;32;20143;-70
2022/01/02 07:56:55;;;;;;;4.28;4.07;;;;;;;9.42;100.00;100908.78;4381948;32;20526;-71
2022/01/02 07:59:21;;;;;;;4.32;4.12;;;;;;;9.47;100.00;100898.94;4383098;32;20082;-70
2022/01/02 08:01:46;;;;;;;4.57;4.37;;;;;;;9.46;100.00;100894.63;4386747;32;20803;-70
2022/01/02 08:04:12;;;;;;;4.95;4.65;;;;;;;9.45;100.00;100895.53;4392385;32;20061;-70
2022/01/02 08:06:38;;;;;;;4.10;3.90;;;;;;;9.50;100.00;100883.09;4313870;32;20140;-71
2022/01/02 08:09:03;;;;;;;4.30;4.10;;;;;;;9.51;100.00;100908.37;4384396;32;20591;-68
2022/01/02 08:11:28;;;;;;;5.57;5.28;;;;;;;9.55;100.00;100880.25;4382898;32;20437;-69
2022/01/02 08:13:54;;;;;;;4.40;4.20;;;;;;;9.55;100.00;100883.72;4382824;32;20065;-70
2022/01/02 08:16:19;;;;;;;5.55;5.35;;;;;;;9.49;99.58;100842.09;4385208;32;20479;-68
2022/01/02 08:18:44;;;;;;;4.15;3.95;;;;;;;9.50;99.26;100830.69;4388362;32;20665;-68
2022/01/02 08:21:10;;;;;;;4.68;4.47;;;;;;;9.63;98.03;100861.56;4386746;32;20146;-68
2022/01/02 08:23:35;;;;;;;4.37;4.18;;;;;;;9.65;97.95;100870.22;4381698;32;20069;-68
2022/01/02 08:26:01;;;;;;;4.10;3.90;;;;;;;9.65;98.41;100859.75;4392110;32;22272;-68
2022/01/02 08:28:26;;;;;;;5.62;5.35;;;;;;;9.68;97.48;100857.84;4381446;32;20254;-69
2022/01/02 08:30:52;;;;;;;4.40;4.20;;;;;;;9.62;97.03;100833.66;4384956;32;20108;-68
2022/01/02 08:33:17;;;;;;;7.87;7.50;;;;;;;9.72;96.57;100853.28;4379137;32;20177;-68
2022/01/02 08:35:43;;;;;;;4.22;4.03;;;;;;;9.72;95.81;100861.13;4377989;32;20329;-72
2022/01/02 08:38:08;;;;;;;4.10;3.90;;;;;;;9.73;95.40;100850.59;4384470;32;20100;-70
2022/01/02 08:40:35;;;;;;;4.10;3.90;;;;;;;9.72;95.21;100861.13;4369243;32;20875;-70
2022/01/02 08:43:01;;;;;;;4.40;4.20;;;;;;;9.67;95.79;100857.91;4383189;32;20168;-72
2022/01/02 08:45:26;;;;;;;5.50;5.28;;;;;;;9.76;95.16;100854.84;4382011;32;20645;-70
2022/01/02 08:47:51;;;;;;;4.10;3.90;;;;;;;9.16;95.35;100805.16;4390712;32;20084;-70
2022/01/02 08:50:17;;;;;;;4.30;4.10;;;;;;;9.74;95.43;100875.91;4387169;32;20084;-70
2022/01/02 08:52:42;;;;;;;4.93;4.62;;;;;;;9.74;94.84;100903.84;4381347;32;20083;-71
2022/01/02 08:55:08;;;;;;;4.20;4.00;;;;;;;9.72;95.49;100896.09;4384410;32;20085;-71
2022/01/02 08:57:33;;;;;;;4.20;4.00;;;;;;;9.70;95.74;100889.19;4373968;32;20609;-69
2022/01/02 08:59:58;;;;;;;4.12;3.92;;;;;;;9.67;95.10;100894.59;4387600;32;20091;-71
2022/01/02 09:02:24;;;;;;;4.40;4.20;;;;;;;9.63;95.12;100865.03;4385419;32;20616;-70
2022/01/02 09:04:49;;;;;;;4.70;4.40;;;;;;;9.73;94.12;100860.22;4386100;32;20136;-68
2022/01/02 09:07:15;;;;;;;5.22;5.03;;;;;;;9.75;93.77;100876.72;4380346;32;20065;-69
2022/01/02 09:09:40;;;;;;;4.30;4.10;;;;;;;9.74;93.15;100872.41;4382195;32;20073;-68
2022/01/02 09:12:07;;;;;;;4.43;4.22;;;;;;;9.47;92.82;100833.44;4380767;32;20143;-68
2022/01/02 09:14:32;;;;;;;5.03;4.72;;;;;;;9.83;92.63;100877.22;4383786;32;20069;-71
2022/01/02 09:16:58;;;;;;;4.50;4.30;;;;;;;9.73;93.00;100863.69;4385075;32;20077;-68
2022/01/02 09:19:23;;;;;;;5.43;5.22;;;;;;;9.85;92.16;100877.16;4380695;32;20554;-70
2022/01/02 09:21:48;;;;;;;4.60;4.40;;;;;;;9.86;92.33;100871.84;4385596;32;20822;-69
2022/01/02 09:24:14;;;;;;;4.87;4.68;;;;;;;9.93;90.85;100864.56;4376856;32;20069;-69
2022/01/02 09:26:39;;;;;;;4.57;4.37;;;;;;;9.94;91.62;100868.84;4380995;32;20082;-69
2022/01/02 09:29:05;;;;;;;4.40;4.20;;;;;;;9.99;91.46;100872.13;4385825;32;20832;-67
2022/01/02 09:31:30;;;;;;;4.07;3.87;;;;;;;10.03;90.58;100885.94;4378350;32;20073;-67
2022/01/02 09:33:55;;;;;;;4.50;4.30;;;;;;;10.09;90.81;100878.63;4379009;32;20061;-67
2022/01/02 09:36:21;;;;;;;5.78;5.55;;;;;;;10.13;90.24;100884.59;4375264;32;20088;-67
2022/01/02 09:38:47;;;;;;;4.10;3.90;;;;;;;10.16;89.72;100882.69;4389678;32;20065;-67
2022/01/02 09:41:13;;;;;;;4.57;4.37;;;;;;;9.40;89.27;100745.56;4385074;32;20402;-67
2022/01/02 09:43:38;;;;;;;4.20;4.00;;;;;;;10.26;89.81;100856.84;4380957;32;20499;-67
2022/01/02 09:46:03;;;;;;;4.60;4.40;;;;;;;10.08;89.31;100832.38;4386534;32;20078;-67
2022/01/02 09:48:29;;;;;;;5.75;5.53;;;;;;;10.38;88.48;100869.41;4380873;32;20586;-67
2022/01/02 09:50:54;;;;;;;4.40;4.20;;;;;;;10.46;88.64;100866.38;4386246;32;20056;-68
2022/01/02 09:53:20;;;;;;;5.85;5.60;;;;;;;9.07;88.00;100651.13;4371096;32;20072;-68
2022/01/02 09:55:45;;;;;;;5.53;5.22;;;;;;;10.62;87.80;100910.25;4381065;32;20084;-68
2022/01/02 09:58:12;;;;;;;4.53;4.32;;;;;;;10.69;87.59;100923.00;4369078;32;20062;-68
2022/01/02 10:00:38;;;;;;;4.72;4.53;;;;;;;10.71;87.09;100891.44;4378696;32;20068;-68
2022/01/02 10:03:05;;;;;;;4.30;4.10;;;;;;;10.86;86.52;100903.78;4377874;32;20068;-67
2022/01/02 10:05:56;;;;;;;4.35;4.15;;;;;;;9.71;85.83;100689.94;4381369;32;20516;-67
2022/01/02 10:08:29;;;;;;;6.12;5.82;;;;;;;11.04;85.34;100902.00;4401596;32;20618;-67
2022/01/02 10:10:59;;;;;;;4.60;4.30;;;;;;;11.10;85.23;100912.19;4381119;32;20148;-67
2022/01/02 10:13:42;;;;;;;6.37;6.07;;;;;;;11.09;84.92;100907.06;4395787;32;20088;-67
2022/01/02 10:16:23;;;;;;;4.37;4.18;;;;;;;11.05;84.46;100921.25;4394134;32;20079;-67
2022/01/02 10:18:49;;;;;;;4.50;4.30;;;;;;;11.06;82.18;100899.31;4397001;32;20074;-67
2022/01/02 10:21:31;;;;;;;5.45;5.20;;;;;;;11.28;80.13;100918.28;4394120;32;20068;-68
2022/01/02 10:24:21;;;;;;;4.30;4.10;;;;;;;11.44;79.37;100905.19;4379168;32;20089;-67
2022/01/02 10:27:08;;;;;;;4.45;4.25;;;;;;;11.86;76.86;100888.06;4376332;32;20096;-67
2022/01/02 10:29:50;;;;;;;5.20;5.00;;;;;;;12.28;75.55;100870.03;4395735;32;20570;-67
2022/01/02 10:32:27;;;;;;;5.95;5.68;;;;;;;12.47;74.26;100881.22;4388282;32;20144;-68
2022/01/02 10:34:55;;;;;;;4.65;4.45;;;;;;;12.63;74.92;100865.38;4396033;32;20449;-68
2022/01/02 10:37:24;;;;;;;5.82;5.57;;;;;;;12.75;71.84;100822.53;4383707;32;20215;-67
2022/01/02 10:39:49;;;;;;;4.75;4.55;;;;;;;12.99;71.43;100832.53;4381020;32;20745;-68
2022/01/02 10:42:16;;;;;;;5.90;5.60;;;;;;;13.12;71.95;100845.81;4384985;32;20069;-67
2022/01/02 10:44:42;;;;;;;4.97;4.78;;;;;;;13.24;71.74;100860.03;4379335;32;20167;-66
2022/01/02 10:47:17;;;;;;;4.70;4.50;;;;;;;13.25;72.40;100859.09;4386841;32;20069;-67
2022/01/02 10:50:03;;;;;;;4.95;4.75;;;;;;;12.88;71.35;100791.03;4404670;32;20069;-67
2022/01/02 10:52:36;;;;;;;6.20;5.90;;;;;;;13.11;70.78;100817.75;4389693;32;20122;-68
2022/01/02 10:55:14;;;;;;;;;;;;;;;13.38;70.71;100873.25;4382524;32;20077;-68
2022/01/02 10:57:39;;;;;;;4.55;4.35;;;;;;;13.46;70.89;100857.81;4399220;32;20523;-67
2022/01/02 11:00:06;;;;;;;4.60;4.40;;;;;;;13.23;70.21;100795.06;4385040;32;20195;-67
2022/01/02 11:02:31;;;;;;;4.47;4.28;;;;;;;13.52;70.47;100846.03;4384814;32;20401;-67
2022/01/02 11:05:11;;;;;;;5.72;5.43;;;;;;;13.69;70.92;100861.66;4388910;32;20081;-67
2022/01/02 11:07:49;;;;;;;4.70;4.50;;;;;;;14.05;68.54;100859.41;4367873;32;20179;-68
2022/01/02 11:10:19;;;;;;;6.80;6.43;;;;;;;14.18;69.12;100876.16;4380101;32;20115;-66
2022/01/02 11:12:45;;;;;;;4.90;4.70;;;;;;;13.96;68.32;100880.16;4386467;32;20491;-67
2022/01/02 11:15:12;;;;;;;4.80;4.60;;;;;;;13.81;70.15;100877.66;4382485;32;20568;-67
2022/01/02 11:17:37;;;;;;;5.25;5.05;;;;;;;13.71;70.41;100874.72;4368170;32;20083;-67
2022/01/02 11:20:04;;;;;;;4.97;4.78;;;;;;;13.54;70.62;100852.06;4362098;32;20085;-67
2022/01/02 11:22:33;;;;;;;5.93;5.62;;;;;;;13.73;70.15;100878.13;4384126;32;20522;-66
2022/01/02 11:25:12;;;;;;;4.65;4.45;;;;;;;13.68;69.61;100880.22;4395520;32;20127;-67
2022/01/02 11:27:49;;;;;;;5.12;4.93;;;;;;;13.65;70.32;100886.53;4377984;32;20187;-68
2022/01/02 11:30:30;;;;;;;6.03;5.75;;;;;;;13.45;71.37;100871.06;4391763;32;20077;-67
2022/01/02 11:33:07;;;;;;;4.90;4.70;;;;;;;13.05;70.63;100834.81;4393812;32;20109;-67
2022/01/02 11:35:32;;;;;;;5.30;5.00;;;;;;;13.21;71.66;100870.75;4380687;32;20080;-68